Let it snow let it snow…

…and sabotage my flying plans!

ESSA 280830Z 280918 25010KT CAVOK TEMPO 1418 4000 -SN BECMG  1618 BKN013=

 

Advertisements

One Response to Let it snow let it snow…

  1. Leif says:

    Fattar inte ett jota av den där text strängen, en vacker dag blir du nöd till att förklara den för mig.

Leave a Reply

Fill in your details below or click an icon to log in:

WordPress.com Logo

You are commenting using your WordPress.com account. Log Out / Change )

Twitter picture

You are commenting using your Twitter account. Log Out / Change )

Facebook photo

You are commenting using your Facebook account. Log Out / Change )

Google+ photo

You are commenting using your Google+ account. Log Out / Change )

Connecting to %s

%d bloggers like this: